Deweyville, Texas
Current Conditions -  °F | °C
As of 10:55 AM on Friday 28 Nov 2014 (Local Time) from KORG Reporting Station
Clear Clear  
Wind Chill: 60°   Ceiling: Unl
Heat Index: 60°   Visibility: 10mi
Dew Point: 49°   Wind: 9mph
Humidity: 68%   Direction: 130°SE
Pressure: 30.37"   Gusts: NA
Location:  30.3°N, 93.74°W
Report Text: KORG 281655Z AUTO 13008KT 10SM CLR 16/10 A3037 RMK AO2 T01550096
Loading
Personal Weather Stations






























Interactive Weather Map New forecast layout! Learn more

10-Day Weather Forecast

Advertisements
Track Severe Weather on mobile